createdAt,value
2022-12-27T00:03:54.599Z,0.20
2022-12-27T00:08:57.678Z,0.40
2022-12-27T00:14:01.365Z,0.63
2022-12-27T00:19:04.482Z,0.20
2022-12-27T00:24:07.108Z,4.38
2022-12-27T00:29:10.784Z,3.63
2022-12-27T00:34:13.320Z,0.20
2022-12-27T00:39:15.683Z,0.20
2022-12-27T00:44:18.029Z,0.55
2022-12-27T00:49:20.341Z,0.20
2022-12-27T00:54:22.663Z,0.75
2022-12-27T00:59:24.985Z,0.10
2022-12-27T01:04:27.269Z,4.40
2022-12-27T01:09:29.609Z,0.20
2022-12-27T01:14:31.918Z,0.90
2022-12-27T01:19:36.527Z,0.45
2022-12-27T01:24:38.829Z,0.82
2022-12-27T01:29:41.123Z,9.32
2022-12-27T01:34:43.485Z,0.20
2022-12-27T01:39:45.790Z,0.80
2022-12-27T01:44:56.166Z,0.68
2022-12-27T01:50:22.058Z,0.10
2022-12-27T01:55:27.815Z,0.13
2022-12-27T02:00:30.137Z,0.20
2022-12-27T02:05:32.719Z,0.30
2022-12-27T02:10:35.334Z,0.10
2022-12-27T02:15:37.780Z,0.10
2022-12-27T02:21:13.254Z,0.20
2022-12-27T02:26:15.483Z,0.10
2022-12-27T02:31:31.272Z,0.55
2022-12-27T02:36:35.725Z,0.35
2022-12-27T02:41:56.982Z,0.95
2022-12-27T02:47:17.823Z,0.27
2022-12-27T02:53:04.119Z,0.17
2022-12-27T02:58:21.333Z,0.10
2022-12-27T03:03:44.736Z,0.20
2022-12-27T03:08:56.035Z,18.35
2022-12-27T03:14:35.362Z,1.35
2022-12-27T03:20:02.693Z,0.32
2022-12-27T03:25:24.452Z,2.85
2022-12-27T03:30:45.411Z,0.00
2022-12-27T03:36:10.978Z,0.20
2022-12-27T03:41:39.481Z,0.10
2022-12-27T03:46:43.563Z,0.68
2022-12-27T03:51:51.383Z,6.13
2022-12-27T03:57:18.176Z,0.30
2022-12-27T04:02:20.812Z,0.65
2022-12-27T04:07:23.230Z,0.10
2022-12-27T04:12:44.468Z,0.10
2022-12-27T04:18:05.831Z,0.10
2022-12-27T04:23:26.922Z,10.40
2022-12-27T04:28:47.752Z,0.10
2022-12-27T04:34:08.761Z,0.10
2022-12-27T04:39:11.028Z,0.20
2022-12-27T04:44:31.698Z,0.10
2022-12-27T04:49:53.431Z,0.52
2022-12-27T04:54:58.549Z,0.10
2022-12-27T05:00:19.202Z,0.10
2022-12-27T05:05:22.103Z,0.10
2022-12-27T05:10:42.667Z,0.10
2022-12-27T05:15:44.978Z,0.10
2022-12-27T05:20:47.270Z,0.75
2022-12-27T05:25:49.603Z,0.10
2022-12-27T05:30:51.897Z,0.15
2022-12-27T05:35:54.422Z,0.28
2022-12-27T05:41:06.487Z,0.20
2022-12-27T05:46:11.243Z,0.10
2022-12-27T05:51:16.268Z,0.20
2022-12-27T05:56:20.523Z,0.10
2022-12-27T06:01:22.969Z,0.15
2022-12-27T06:06:25.275Z,0.20
2022-12-27T06:11:27.548Z,0.68
2022-12-27T06:16:29.857Z,0.43
2022-12-27T06:21:32.228Z,0.38
2022-12-27T06:26:34.516Z,0.10
2022-12-27T06:31:36.831Z,0.10
2022-12-27T06:36:39.309Z,0.45
2022-12-27T06:41:41.559Z,47.78
2022-12-27T06:46:43.860Z,0.20
2022-12-27T06:51:50.369Z,0.20
2022-12-27T06:56:56.919Z,0.17
2022-12-27T07:01:59.579Z,19.20
2022-12-27T07:07:02.303Z,0.20
2022-12-27T07:12:04.709Z,0.17
2022-12-27T07:17:07.008Z,0.13
2022-12-27T07:22:09.292Z,0.20
2022-12-27T07:27:11.560Z,0.10
2022-12-27T07:32:13.989Z,81.03
2022-12-27T07:37:17.731Z,1.05
2022-12-27T07:42:20.047Z,2.88
2022-12-27T07:47:22.283Z,0.28
2022-12-27T07:52:24.607Z,6.95
2022-12-27T07:57:28.143Z,1999.90
2022-12-27T08:02:31.674Z,1999.90
2022-12-27T08:07:33.973Z,113.57
2022-12-27T08:12:36.292Z,0.10
2022-12-27T08:17:38.614Z,1413.65
2022-12-27T08:22:41.044Z,1999.90
2022-12-27T08:27:43.314Z,1999.90
2022-12-27T08:32:45.615Z,1999.90
2022-12-27T08:37:47.897Z,1999.90
2022-12-27T08:42:50.131Z,1999.90
2022-12-27T08:47:52.554Z,0.93
2022-12-27T08:52:58.333Z,16.38
2022-12-27T08:58:09.241Z,6.85
2022-12-27T09:03:19.395Z,3.25
2022-12-27T09:08:21.724Z,1999.90
2022-12-27T09:13:24.049Z,1999.90
2022-12-27T09:18:26.344Z,7.13
2022-12-27T09:23:29.461Z,8.57
2022-12-27T09:28:31.854Z,10.23
2022-12-27T09:33:34.247Z,10.57
2022-12-27T09:38:37.324Z,11.20
2022-12-27T09:43:53.311Z,10.27
2022-12-27T09:48:56.755Z,24.60
2022-12-27T09:54:03.732Z,26.17
2022-12-27T09:59:21.242Z,25.42
2022-12-27T10:04:23.548Z,24.98
2022-12-27T10:09:39.745Z,22.60
2022-12-27T10:15:03.931Z,20.60
2022-12-27T10:20:19.143Z,20.27
2022-12-27T10:25:23.502Z,1999.90
2022-12-27T10:30:26.199Z,1999.90
2022-12-27T10:35:29.194Z,1999.90
2022-12-27T10:41:02.559Z,1999.90
2022-12-27T10:46:21.163Z,1999.90
2022-12-27T10:51:24.658Z,1999.90
2022-12-27T10:56:38.950Z,1999.90
2022-12-27T11:01:41.550Z,1999.90
2022-12-27T11:06:46.896Z,1999.90
2022-12-27T11:11:49.166Z,1999.90
2022-12-27T11:16:51.723Z,1999.90
2022-12-27T11:21:55.454Z,1999.90
2022-12-27T11:26:59.320Z,1999.90
2022-12-27T11:32:07.314Z,1999.90
2022-12-27T11:37:15.675Z,1999.90
2022-12-27T11:42:27.029Z,1999.90
2022-12-27T11:47:36.136Z,1999.90
2022-12-27T11:53:09.793Z,1999.90
2022-12-27T11:58:24.381Z,1999.90
2022-12-27T12:03:26.820Z,1999.90
2022-12-27T12:08:54.058Z,1999.90
2022-12-27T12:14:24.029Z,1999.90
2022-12-27T12:19:59.706Z,1999.90
2022-12-27T12:25:23.458Z,1999.90
2022-12-27T12:30:44.643Z,1999.90
2022-12-27T12:36:01.095Z,1999.90
2022-12-27T12:41:40.835Z,1999.90
2022-12-27T12:47:15.547Z,1999.90
2022-12-27T12:52:47.307Z,1999.90
2022-12-27T12:58:14.345Z,1999.90
2022-12-27T13:03:34.053Z,1999.90
2022-12-27T13:08:52.925Z,1999.90
2022-12-27T13:14:04.059Z,1999.90
2022-12-27T13:19:30.744Z,1999.90
2022-12-27T13:25:03.667Z,1999.90
2022-12-27T13:30:24.379Z,1999.90
2022-12-27T13:36:00.963Z,1999.90
2022-12-27T13:41:36.640Z,1999.90
2022-12-27T13:46:54.160Z,10.98
2022-12-27T13:52:08.694Z,10.05
2022-12-27T13:57:30.733Z,9.10
2022-12-27T14:08:12.242Z,8.05
2022-12-27T14:13:37.147Z,7.40
2022-12-27T14:18:42.369Z,9.65
2022-12-27T14:23:59.828Z,7.97
2022-12-27T14:29:32.578Z,19.08
2022-12-27T14:35:05.745Z,4.97
2022-12-27T14:40:45.000Z,5.40
2022-12-27T14:46:02.415Z,4.65
2022-12-27T14:51:58.914Z,4.38
2022-12-27T14:57:12.606Z,4.10
2022-12-27T15:02:30.094Z,3.58
2022-12-27T15:07:56.898Z,4.00
2022-12-27T15:13:18.251Z,5.53
2022-12-27T15:18:35.971Z,3.57
2022-12-27T15:23:58.970Z,3.35
2022-12-27T15:29:26.517Z,3.38
2022-12-27T15:34:47.471Z,4.53
2022-12-27T15:39:50.647Z,0.25
2022-12-27T15:45:05.933Z,0.25
2022-12-27T15:50:33.337Z,0.10
2022-12-27T15:56:03.516Z,0.20
2022-12-27T16:01:25.268Z,0.10
2022-12-27T16:06:34.356Z,0.20
2022-12-27T16:11:58.497Z,0.20
2022-12-27T16:17:25.401Z,0.20
2022-12-27T16:22:35.783Z,0.20
2022-12-27T16:27:38.191Z,0.13
2022-12-27T16:32:48.946Z,0.10
2022-12-27T16:37:55.820Z,0.10
2022-12-27T16:42:58.114Z,0.10
2022-12-27T16:48:39.485Z,0.20
2022-12-27T16:54:23.731Z,0.10
2022-12-27T16:59:58.439Z,0.10
2022-12-27T17:05:01.524Z,0.20
2022-12-27T17:10:30.851Z,0.10
2022-12-27T17:15:33.404Z,1.20
2022-12-27T17:20:37.865Z,0.20
2022-12-27T17:25:52.256Z,0.20
2022-12-27T17:31:04.765Z,0.65
2022-12-27T17:36:41.502Z,0.10
2022-12-27T17:42:16.853Z,0.10
2022-12-27T17:47:43.667Z,0.30
2022-12-27T17:53:24.818Z,0.10
2022-12-27T17:58:34.567Z,0.10
2022-12-27T18:03:42.347Z,1.25
2022-12-27T18:08:48.364Z,1616.68
2022-12-27T18:13:53.855Z,0.50
2022-12-27T18:19:00.160Z,0.30
2022-12-27T18:24:02.701Z,0.10
2022-12-27T18:29:06.236Z,0.10
2022-12-27T18:34:20.404Z,0.73
2022-12-27T18:39:38.120Z,0.13
2022-12-27T18:44:46.376Z,0.20
2022-12-27T18:50:14.867Z,0.10
2022-12-27T18:55:17.741Z,0.57
2022-12-27T19:00:25.090Z,0.10
2022-12-27T19:05:30.069Z,4.13
2022-12-27T19:10:33.791Z,1.38
2022-12-27T19:15:43.267Z,0.10
2022-12-27T19:20:55.855Z,0.30
2022-12-27T19:25:59.619Z,0.10
2022-12-27T19:31:17.693Z,0.10
2022-12-27T19:36:39.631Z,0.10
2022-12-27T19:41:41.898Z,0.10
2022-12-27T19:46:44.681Z,0.20
2022-12-27T19:51:46.991Z,0.10
2022-12-27T19:56:49.703Z,0.10
2022-12-27T20:01:52.598Z,0.20
2022-12-27T20:06:55.147Z,0.10
2022-12-27T20:11:57.732Z,0.15
2022-12-27T20:17:00.315Z,0.15
2022-12-27T20:22:02.644Z,2.35
2022-12-27T20:27:05.342Z,0.45
2022-12-27T20:32:07.782Z,0.10
2022-12-27T20:37:10.873Z,0.20
2022-12-27T20:42:13.194Z,0.30
2022-12-27T20:47:15.471Z,0.20
2022-12-27T20:52:18.071Z,0.10
2022-12-27T20:57:20.348Z,0.10
2022-12-27T21:02:22.754Z,0.10
2022-12-27T21:07:25.182Z,0.30
2022-12-27T21:12:27.465Z,0.10
2022-12-27T21:17:29.794Z,0.25
2022-12-27T21:22:32.207Z,0.10
2022-12-27T21:27:34.634Z,0.17
2022-12-27T21:32:36.890Z,0.20
2022-12-27T21:37:39.151Z,0.10
2022-12-27T21:42:41.475Z,0.57
2022-12-27T21:47:43.758Z,0.20
2022-12-27T21:52:46.012Z,0.20
2022-12-27T21:57:48.282Z,0.10
2022-12-27T22:02:50.716Z,0.25
2022-12-27T22:07:55.374Z,0.22
2022-12-27T22:12:57.734Z,0.10
2022-12-27T22:17:59.987Z,0.20
2022-12-27T22:23:02.403Z,0.50
2022-12-27T22:28:04.809Z,0.10
2022-12-27T22:33:07.671Z,0.10
2022-12-27T22:38:10.228Z,0.20
2022-12-27T22:43:12.566Z,0.10
2022-12-27T22:48:15.094Z,1.48
2022-12-27T22:53:17.365Z,0.30
2022-12-27T22:58:19.589Z,0.10
2022-12-27T23:03:21.965Z,0.10
2022-12-27T23:08:24.325Z,0.30
2022-12-27T23:13:26.606Z,0.20
2022-12-27T23:18:29.524Z,0.20
2022-12-27T23:23:33.414Z,0.10
2022-12-27T23:28:40.502Z,0.10
2022-12-27T23:33:43.552Z,0.20
2022-12-27T23:38:46.083Z,0.10
2022-12-27T23:43:54.343Z,0.10
2022-12-27T23:48:59.414Z,0.10
2022-12-27T23:54:01.873Z,0.20
2022-12-27T23:59:06.878Z,0.10
